Time;durP1;ratioP1;P1;durP2;ratioP2;P2;SDS_P1;SDS_P2;PMS_P1;PMS_P2;Temp;Humidity;BMP_temperature;BMP_pressure;BME280_temperature;BME280_humidity;BME280_pressure;Samples;Min_cycle;Max_cycle;Signal;HPM_P1;HPM_P2
2024/03/03 00:01:47;;;;;;;7.57;3.60;;;;;;;;;;5067440;28;20051;-60
2024/03/03 00:04:13;;;;;;;7.53;3.70;;;;;;;;;;5055438;28;20036;-60
2024/03/03 00:06:38;;;;;;;8.57;3.80;;;;;;;;;;5055787;28;20025;-60
2024/03/03 00:09:06;;;;;;;6.88;3.95;;;;;;;;;;5059188;28;20041;-60
2024/03/03 00:11:34;;;;;;;9.73;3.50;;;;;;;;;;5055661;28;20033;-60
2024/03/03 00:14:00;;;;;;;5.27;3.30;;;;;;;;;;5055746;28;20273;-60
2024/03/03 00:16:26;;;;;;;6.60;3.20;;;;;;;;;;5055711;28;20278;-60
2024/03/03 00:18:52;;;;;;;12.37;3.73;;;;;;;;;;5044624;28;20041;-60
2024/03/03 00:21:18;;;;;;;6.27;3.30;;;;;;;;;;5062812;28;20281;-59
2024/03/03 00:23:44;;;;;;;7.53;3.10;;;;;;;;;;5055259;28;20250;-61
2024/03/03 00:26:09;;;;;;;6.03;3.38;;;;;;;;;;5062751;28;20067;-61
2024/03/03 00:28:35;;;;;;;8.18;3.58;;;;;;;;;;5061131;28;20064;-61
2024/03/03 00:31:00;;;;;;;6.60;3.50;;;;;;;;;;5056594;28;20041;-60
2024/03/03 00:33:26;;;;;;;5.43;3.10;;;;;;;;;;5055986;28;20143;-60
2024/03/03 00:35:51;;;;;;;7.47;3.05;;;;;;;;;;5059009;28;20033;-61
2024/03/03 00:38:17;;;;;;;7.97;4.05;;;;;;;;;;5061162;28;20029;-60
2024/03/03 00:40:43;;;;;;;4.63;2.92;;;;;;;;;;5058398;28;20026;-59
2024/03/03 00:43:09;;;;;;;9.23;3.42;;;;;;;;;;5065044;28;20036;-60
2024/03/03 00:45:34;;;;;;;7.68;3.65;;;;;;;;;;5054464;28;20026;-61
2024/03/03 00:48:00;;;;;;;6.70;3.67;;;;;;;;;;5054073;28;20034;-60
2024/03/03 00:50:25;;;;;;;6.53;3.53;;;;;;;;;;5062545;28;20021;-60
2024/03/03 00:52:54;;;;;;;6.10;3.27;;;;;;;;;;5063612;28;20052;-61
2024/03/03 00:55:22;;;;;;;8.37;3.73;;;;;;;;;;5053832;28;20040;-60
2024/03/03 00:57:48;;;;;;;5.60;3.10;;;;;;;;;;5062657;28;20369;-58
2024/03/03 01:00:13;;;;;;;8.10;4.00;;;;;;;;;;5059183;28;20258;-60
2024/03/03 01:02:39;;;;;;;5.25;3.10;;;;;;;;;;5053666;28;20089;-60
2024/03/03 01:05:05;;;;;;;6.13;3.57;;;;;;;;;;5054688;28;20034;-60
2024/03/03 01:07:30;;;;;;;5.60;3.10;;;;;;;;;;5055052;28;20084;-60
2024/03/03 01:09:56;;;;;;;6.50;3.70;;;;;;;;;;5055600;28;20072;-59
2024/03/03 01:12:21;;;;;;;9.98;4.10;;;;;;;;;;5057425;28;20029;-60
2024/03/03 01:14:47;;;;;;;7.35;3.65;;;;;;;;;;5053515;28;20065;-60
2024/03/03 01:17:12;;;;;;;8.13;4.25;;;;;;;;;;5064651;28;20029;-60
2024/03/03 01:19:38;;;;;;;5.25;3.35;;;;;;;;;;5072400;28;20036;-60
2024/03/03 01:22:03;;;;;;;9.15;3.85;;;;;;;;;;5065062;28;20065;-60
2024/03/03 01:24:29;;;;;;;6.80;4.00;;;;;;;;;;5053839;28;20040;-59
2024/03/03 01:26:55;;;;;;;6.88;3.92;;;;;;;;;;5053067;28;20040;-62
2024/03/03 01:29:21;;;;;;;8.03;3.77;;;;;;;;;;5054561;28;20037;-60
2024/03/03 01:31:46;;;;;;;6.53;3.60;;;;;;;;;;5061994;28;20289;-60
2024/03/03 01:34:12;;;;;;;9.68;4.95;;;;;;;;;;5050197;28;20040;-59
2024/03/03 01:36:38;;;;;;;7.80;4.47;;;;;;;;;;5053469;28;20034;-60
2024/03/03 01:39:03;;;;;;;7.17;4.40;;;;;;;;;;5054413;28;20318;-60
2024/03/03 01:41:29;;;;;;;7.70;3.97;;;;;;;;;;5055740;28;20263;-60
2024/03/03 01:43:54;;;;;;;7.53;4.63;;;;;;;;;;5053642;28;20269;-60
2024/03/03 01:46:20;;;;;;;9.57;4.00;;;;;;;;;;5054171;28;20294;-61
2024/03/03 01:48:46;;;;;;;7.43;4.03;;;;;;;;;;5054397;28;20262;-60
2024/03/03 01:51:11;;;;;;;;;;;;;;;;;;5063826;28;20044;-59
2024/03/03 01:53:39;;;;;;;6.33;3.93;;;;;;;;;;5063149;28;19913;-60
2024/03/03 01:56:04;;;;;;;10.57;4.23;;;;;;;;;;5053089;28;20037;-60
2024/03/03 01:58:30;;;;;;;7.55;3.92;;;;;;;;;;5064003;28;20278;-59
2024/03/03 02:00:57;;;;;;;6.72;4.00;;;;;;;;;;5060777;28;20029;-60
2024/03/03 02:03:22;;;;;;;7.80;4.43;;;;;;;;;;5061405;28;20029;-60
2024/03/03 02:05:48;;;;;;;7.60;3.80;;;;;;;;;;5053285;28;20038;-59
2024/03/03 02:08:14;;;;;;;7.57;4.60;;;;;;;;;;5053352;28;20061;-60
2024/03/03 02:10:41;;;;;;;7.68;4.20;;;;;;;;;;5057042;28;20297;-60
2024/03/03 02:13:06;;;;;;;7.53;4.45;;;;;;;;;;5054057;28;20044;-59
2024/03/03 02:15:32;;;;;;;8.85;4.68;;;;;;;;;;5054019;28;20041;-59
2024/03/03 02:17:58;;;;;;;11.95;4.78;;;;;;;;;;5057039;28;20037;-59
2024/03/03 02:20:24;;;;;;;9.43;4.38;;;;;;;;;;5056401;28;20033;-60
2024/03/03 02:22:49;;;;;;;6.57;3.80;;;;;;;;;;5053457;28;20044;-60
2024/03/03 02:25:15;;;;;;;9.95;4.35;;;;;;;;;;5053049;28;20033;-60
2024/03/03 02:27:40;;;;;;;7.57;4.15;;;;;;;;;;5042540;28;20089;-59
2024/03/03 02:30:08;;;;;;;11.10;4.43;;;;;;;;;;5053983;28;20041;-60
2024/03/03 02:32:33;;;;;;;7.67;4.60;;;;;;;;;;5081967;28;20052;-60
2024/03/03 02:34:59;;;;;;;11.47;4.87;;;;;;;;;;5057547;28;20279;-61
2024/03/03 02:37:24;;;;;;;10.32;4.80;;;;;;;;;;5057376;28;20096;-60
2024/03/03 02:39:50;;;;;;;8.60;4.33;;;;;;;;;;5054992;28;20298;-60
2024/03/03 02:42:15;;;;;;;7.33;4.30;;;;;;;;;;5058470;28;20259;-59
2024/03/03 02:44:41;;;;;;;8.90;4.67;;;;;;;;;;5069339;28;20269;-60
2024/03/03 02:47:06;;;;;;;10.57;4.88;;;;;;;;;;5056580;28;20036;-60
2024/03/03 02:49:32;;;;;;;9.85;4.55;;;;;;;;;;5057323;28;20067;-60
2024/03/03 02:51:58;;;;;;;8.05;4.72;;;;;;;;;;5061640;28;20041;-60
2024/03/03 02:54:23;;;;;;;7.00;4.60;;;;;;;;;;5057345;28;20049;-61
2024/03/03 02:56:49;;;;;;;8.25;4.43;;;;;;;;;;5057147;28;20029;-60
2024/03/03 02:59:15;;;;;;;7.50;4.88;;;;;;;;;;5057102;28;20038;-59
2024/03/03 03:01:40;;;;;;;9.10;4.83;;;;;;;;;;5058238;28;20044;-66
2024/03/03 03:04:05;;;;;;;9.90;5.30;;;;;;;;;;5057120;28;20030;-59
2024/03/03 03:06:31;;;;;;;7.15;4.40;;;;;;;;;;5056028;28;20030;-58
2024/03/03 03:08:57;;;;;;;10.10;4.83;;;;;;;;;;5056980;28;20040;-61
2024/03/03 03:11:24;;;;;;;7.03;4.37;;;;;;;;;;5056627;28;20274;-61
2024/03/03 03:13:49;;;;;;;10.67;4.97;;;;;;;;;;5061364;28;20274;-60
2024/03/03 03:16:15;;;;;;;10.13;5.03;;;;;;;;;;5055688;28;20298;-60
2024/03/03 03:18:41;;;;;;;11.50;5.10;;;;;;;;;;5056683;28;20029;-60
2024/03/03 03:21:06;;;;;;;8.77;4.45;;;;;;;;;;5060290;28;20112;-60
2024/03/03 03:23:32;;;;;;;14.93;5.07;;;;;;;;;;5066453;28;20025;-59
2024/03/03 03:25:57;;;;;;;10.75;5.55;;;;;;;;;;5056947;28;20060;-60
2024/03/03 03:28:23;;;;;;;9.43;5.60;;;;;;;;;;5056764;28;20026;-60
2024/03/03 03:30:49;;;;;;;8.35;4.68;;;;;;;;;;5056578;28;20041;-60
2024/03/03 03:33:15;;;;;;;9.07;4.50;;;;;;;;;;5064232;28;20110;-61
2024/03/03 03:35:41;;;;;;;12.20;5.55;;;;;;;;;;5056945;28;20033;-61
2024/03/03 03:38:07;;;;;;;9.45;5.18;;;;;;;;;;5059441;28;20033;-60
2024/03/03 03:40:33;;;;;;;10.48;5.05;;;;;;;;;;5056894;28;20048;-60
2024/03/03 03:42:58;;;;;;;11.43;5.23;;;;;;;;;;5057412;28;20105;-60
2024/03/03 03:45:24;;;;;;;9.45;5.03;;;;;;;;;;5068338;28;20029;-60
2024/03/03 03:47:49;;;;;;;12.35;4.88;;;;;;;;;;5055996;28;20029;-60
2024/03/03 03:50:15;;;;;;;12.57;5.50;;;;;;;;;;5055917;28;20038;-60
2024/03/03 03:52:41;;;;;;;8.53;4.93;;;;;;;;;;5055948;28;20274;-60
2024/03/03 03:55:07;;;;;;;11.25;5.97;;;;;;;;;;5056038;28;20297;-61
2024/03/03 03:57:32;;;;;;;11.95;6.20;;;;;;;;;;5056089;28;20033;-60
2024/03/03 03:59:59;;;;;;;10.53;6.23;;;;;;;;;;5055921;28;20025;-61
2024/03/03 04:02:28;;;;;;;12.03;6.20;;;;;;;;;;5055648;28;20028;-60
2024/03/03 04:04:53;;;;;;;10.13;5.83;;;;;;;;;;5063774;28;20286;-60
2024/03/03 04:07:19;;;;;;;11.50;6.47;;;;;;;;;;5055815;28;20290;-60
2024/03/03 04:09:45;;;;;;;11.27;6.65;;;;;;;;;;5055787;28;20321;-60
2024/03/03 04:12:10;;;;;;;15.77;7.30;;;;;;;;;;5055536;28;20033;-61
2024/03/03 04:14:36;;;;;;;12.35;6.47;;;;;;;;;;5055512;28;20092;-59
2024/03/03 04:17:02;;;;;;;18.25;6.97;;;;;;;;;;5055620;28;20025;-60
2024/03/03 04:19:27;;;;;;;11.52;6.50;;;;;;;;;;5055205;28;20044;-60
2024/03/03 04:21:53;;;;;;;13.27;6.67;;;;;;;;;;5058365;28;20096;-60
2024/03/03 04:24:18;;;;;;;10.90;6.70;;;;;;;;;;5055890;28;20263;-60
2024/03/03 04:26:44;;;;;;;14.70;6.97;;;;;;;;;;5055193;28;20274;-60
2024/03/03 04:29:09;;;;;;;14.55;7.13;;;;;;;;;;5060538;28;20029;-59
2024/03/03 04:31:41;;;;;;;21.25;7.68;;;;;;;;;;5063794;28;20064;-60
2024/03/03 04:34:07;;;;;;;15.10;6.77;;;;;;;;;;5067098;28;20048;-60
2024/03/03 04:36:32;;;;;;;16.10;7.20;;;;;;;;;;5055488;28;20282;-61
2024/03/03 04:38:58;;;;;;;13.48;6.63;;;;;;;;;;5055141;28;20286;-60
2024/03/03 04:41:24;;;;;;;12.55;6.45;;;;;;;;;;5055323;28;20091;-60
2024/03/03 04:43:49;;;;;;;16.30;7.90;;;;;;;;;;5054570;28;20033;-60
2024/03/03 04:46:15;;;;;;;13.52;7.75;;;;;;;;;;5055156;28;20029;-60
2024/03/03 04:48:40;;;;;;;13.75;7.97;;;;;;;;;;5054854;28;20033;-60
2024/03/03 04:51:09;;;;;;;14.27;7.80;;;;;;;;;;5054926;28;20037;-61
2024/03/03 04:53:35;;;;;;;14.47;7.13;;;;;;;;;;5066520;28;20334;-60
2024/03/03 04:56:00;;;;;;;16.45;8.27;;;;;;;;;;5061608;28;20271;-60
2024/03/03 04:58:26;;;;;;;15.80;7.28;;;;;;;;;;5054719;28;20053;-60
2024/03/03 05:00:52;;;;;;;15.43;7.20;;;;;;;;;;5054773;28;20045;-60
2024/03/03 05:03:18;;;;;;;18.17;8.20;;;;;;;;;;5061443;28;20056;-60
2024/03/03 05:05:43;;;;;;;14.45;8.35;;;;;;;;;;5054470;28;20068;-60
2024/03/03 05:08:09;;;;;;;14.70;8.13;;;;;;;;;;5054530;28;20029;-60
2024/03/03 05:10:35;;;;;;;14.00;7.20;;;;;;;;;;5054731;28;20049;-60
2024/03/03 05:13:02;;;;;;;13.53;7.57;;;;;;;;;;5053545;28;20034;-61
2024/03/03 05:15:28;;;;;;;20.30;7.70;;;;;;;;;;5054932;28;20033;-60
2024/03/03 05:17:53;;;;;;;15.50;7.83;;;;;;;;;;5054166;28;20286;-61
2024/03/03 05:20:19;;;;;;;12.83;6.83;;;;;;;;;;5054608;28;20326;-60
2024/03/03 05:22:44;;;;;;;14.88;7.45;;;;;;;;;;5057904;28;20025;-60
2024/03/03 05:25:10;;;;;;;14.47;7.87;;;;;;;;;;5062065;28;20048;-59
2024/03/03 05:27:36;;;;;;;14.25;7.53;;;;;;;;;;5054550;28;20056;-60
2024/03/03 05:30:02;;;;;;;20.52;8.45;;;;;;;;;;5054646;28;20041;-60
2024/03/03 05:32:28;;;;;;;15.30;8.35;;;;;;;;;;5054586;28;20022;-60
2024/03/03 05:34:53;;;;;;;17.08;9.27;;;;;;;;;;5058145;28;20029;-60
2024/03/03 05:37:19;;;;;;;13.70;7.93;;;;;;;;;;5054405;28;20041;-61
2024/03/03 05:39:45;;;;;;;14.43;8.00;;;;;;;;;;5054468;28;20033;-59
2024/03/03 05:42:11;;;;;;;15.30;8.00;;;;;;;;;;5053461;28;20021;-60
2024/03/03 05:44:37;;;;;;;14.65;8.43;;;;;;;;;;5055554;28;20060;-60
2024/03/03 05:47:03;;;;;;;16.98;8.30;;;;;;;;;;5054130;28;20033;-60
2024/03/03 05:49:28;;;;;;;16.57;7.97;;;;;;;;;;5054460;28;20084;-60
2024/03/03 05:51:54;;;;;;;20.00;8.50;;;;;;;;;;5056701;28;20297;-60
2024/03/03 05:54:19;;;;;;;18.25;8.73;;;;;;;;;;5068217;28;20037;-61
2024/03/03 05:56:45;;;;;;;15.35;8.32;;;;;;;;;;5054422;28;20063;-60
2024/03/03 05:59:13;;;;;;;16.67;8.40;;;;;;;;;;5054234;28;20060;-60
2024/03/03 06:01:39;;;;;;;24.43;8.63;;;;;;;;;;5054679;28;20052;-60
2024/03/03 06:04:04;;;;;;;17.87;9.27;;;;;;;;;;5061358;28;20263;-60
2024/03/03 06:06:30;;;;;;;15.38;8.27;;;;;;;;;;5054283;28;20048;-59
2024/03/03 06:08:55;;;;;;;16.38;8.10;;;;;;;;;;5058119;28;20049;-60
2024/03/03 06:11:21;;;;;;;18.40;8.07;;;;;;;;;;5057935;28;20078;-61
2024/03/03 06:13:46;;;;;;;15.20;7.78;;;;;;;;;;5062642;28;20025;-60
2024/03/03 06:16:12;;;;;;;14.50;7.57;;;;;;;;;;5061139;28;20093;-60
2024/03/03 06:18:37;;;;;;;13.80;6.57;;;;;;;;;;5057769;28;20542;-60
2024/03/03 06:21:02;;;;;;;16.37;7.30;;;;;;;;;;5057735;28;20025;-59
2024/03/03 06:23:28;;;;;;;14.43;7.60;;;;;;;;;;5057982;28;20040;-59
2024/03/03 06:25:53;;;;;;;19.53;8.13;;;;;;;;;;5057477;28;20355;-60
2024/03/03 06:28:19;;;;;;;16.10;8.23;;;;;;;;;;5057724;28;20034;-60
2024/03/03 06:30:45;;;;;;;15.23;8.23;;;;;;;;;;5057478;28;20033;-60
2024/03/03 06:33:10;;;;;;;15.97;7.50;;;;;;;;;;5057627;28;20037;-60
2024/03/03 06:35:36;;;;;;;15.85;7.47;;;;;;;;;;5056901;28;20033;-60
2024/03/03 06:38:02;;;;;;;12.83;7.87;;;;;;;;;;5057627;28;20041;-60
2024/03/03 06:40:28;;;;;;;14.68;7.05;;;;;;;;;;5057556;28;20289;-60
2024/03/03 06:42:53;;;;;;;14.53;7.57;;;;;;;;;;5059191;28;20029;-60
2024/03/03 06:45:19;;;;;;;17.07;7.43;;;;;;;;;;5056492;28;20338;-59
2024/03/03 06:47:44;;;;;;;21.77;9.03;;;;;;;;;;5056923;28;20282;-59
2024/03/03 06:50:09;;;;;;;14.67;7.27;;;;;;;;;;5056982;28;20028;-59
2024/03/03 06:52:35;;;;;;;14.75;7.93;;;;;;;;;;5060419;28;20041;-59
2024/03/03 06:55:01;;;;;;;14.60;6.70;;;;;;;;;;5058063;28;20037;-60
2024/03/03 06:57:27;;;;;;;17.63;7.45;;;;;;;;;;5057295;28;20255;-60
2024/03/03 06:59:53;;;;;;;13.87;7.47;;;;;;;;;;5057078;28;20107;-60
2024/03/03 07:02:18;;;;;;;18.43;7.27;;;;;;;;;;5057122;28;20330;-61
2024/03/03 07:04:44;;;;;;;14.43;6.70;;;;;;;;;;5057971;28;20263;-60
2024/03/03 07:07:09;;;;;;;17.70;7.63;;;;;;;;;;5057056;28;20270;-60
2024/03/03 07:09:36;;;;;;;15.60;6.47;;;;;;;;;;5056824;28;20040;-60
2024/03/03 07:12:03;;;;;;;17.17;7.97;;;;;;;;;;5056954;28;20033;-60
2024/03/03 07:14:29;;;;;;;18.50;7.05;;;;;;;;;;5059227;28;20274;-60
2024/03/03 07:16:56;;;;;;;14.77;7.97;;;;;;;;;;5072749;28;20069;-59
2024/03/03 07:19:21;;;;;;;14.43;7.37;;;;;;;;;;5054629;28;20298;-60
2024/03/03 07:21:46;;;;;;;18.75;8.43;;;;;;;;;;5056737;28;20052;-60
2024/03/03 07:24:12;;;;;;;15.67;7.77;;;;;;;;;;5063642;28;20064;-59
2024/03/03 07:26:37;;;;;;;17.03;8.47;;;;;;;;;;5062469;28;20282;-60
2024/03/03 07:29:03;;;;;;;18.70;8.53;;;;;;;;;;5056693;28;20263;-60
2024/03/03 07:31:29;;;;;;;19.17;7.80;;;;;;;;;;5056723;28;20119;-60
2024/03/03 07:33:55;;;;;;;16.23;8.20;;;;;;;;;;5057756;28;20045;-60
2024/03/03 07:36:20;;;;;;;15.97;8.37;;;;;;;;;;5042463;28;20105;-61
2024/03/03 07:38:46;;;;;;;16.47;8.00;;;;;;;;;;5056241;28;20275;-60
2024/03/03 07:41:11;;;;;;;16.90;7.73;;;;;;;;;;5056434;28;20025;-59
2024/03/03 07:43:37;;;;;;;17.30;8.43;;;;;;;;;;5058604;28;20357;-61
2024/03/03 07:46:02;;;;;;;20.40;9.55;;;;;;;;;;5055954;28;20037;-60
2024/03/03 07:48:28;;;;;;;19.17;9.40;;;;;;;;;;5056197;28;20049;-60
2024/03/03 07:50:54;;;;;;;19.38;8.88;;;;;;;;;;5056121;28;20037;-60
2024/03/03 07:53:21;;;;;;;16.73;7.97;;;;;;;;;;5055732;28;20038;-60
2024/03/03 07:55:47;;;;;;;21.45;8.50;;;;;;;;;;5055712;28;20273;-60
2024/03/03 07:58:12;;;;;;;13.73;7.20;;;;;;;;;;5065148;28;20033;-59
2024/03/03 08:00:38;;;;;;;19.23;7.88;;;;;;;;;;5055832;28;20282;-60
2024/03/03 08:03:04;;;;;;;15.07;8.23;;;;;;;;;;5055669;28;20033;-60
2024/03/03 08:05:33;;;;;;;19.48;8.48;;;;;;;;;;5063850;28;20032;-60
2024/03/03 08:07:59;;;;;;;14.97;7.83;;;;;;;;;;5055606;28;20033;-60
2024/03/03 08:10:25;;;;;;;21.85;8.45;;;;;;;;;;5055724;28;20262;-60
2024/03/03 08:12:51;;;;;;;17.25;8.13;;;;;;;;;;5055644;28;20097;-60
2024/03/03 08:15:16;;;;;;;14.73;8.23;;;;;;;;;;5063909;28;20033;-61
2024/03/03 08:17:42;;;;;;;18.53;8.23;;;;;;;;;;5055608;28;20274;-60
2024/03/03 08:20:10;;;;;;;16.58;7.78;;;;;;;;;;5055389;28;20259;-60
2024/03/03 08:22:39;;;;;;;14.50;7.60;;;;;;;;;;5054998;28;20037;-60
2024/03/03 08:25:05;;;;;;;15.10;7.67;;;;;;;;;;5057749;28;20440;-60
2024/03/03 08:27:30;;;;;;;15.15;8.23;;;;;;;;;;5059666;28;20258;-61
2024/03/03 08:29:56;;;;;;;19.33;9.40;;;;;;;;;;5062997;28;20033;-61
2024/03/03 08:32:23;;;;;;;19.55;9.55;;;;;;;;;;5055301;28;20017;-60
2024/03/03 08:34:49;;;;;;;17.03;9.13;;;;;;;;;;5054926;28;20022;-60
2024/03/03 08:37:14;;;;;;;18.77;8.20;;;;;;;;;;5054610;28;20334;-61
2024/03/03 08:39:40;;;;;;;15.97;7.10;;;;;;;;;;5054844;28;20037;-60
2024/03/03 08:42:05;;;;;;;15.70;8.20;;;;;;;;;;5054187;28;20057;-60
2024/03/03 08:44:31;;;;;;;14.83;8.03;;;;;;;;;;5061836;28;20033;-61
2024/03/03 08:46:56;;;;;;;;;;;;;;;;;;5061243;28;20064;-61
2024/03/03 08:49:22;;;;;;;15.20;7.83;;;;;;;;;;5054618;28;19909;-61
2024/03/03 08:51:48;;;;;;;17.95;7.70;;;;;;;;;;5054273;28;20033;-61
2024/03/03 08:54:13;;;;;;;16.03;7.83;;;;;;;;;;5054559;28;20033;-61
2024/03/03 08:56:39;;;;;;;13.18;6.97;;;;;;;;;;5053964;28;20104;-61
2024/03/03 08:59:04;;;;;;;12.07;6.67;;;;;;;;;;5056282;28;20049;-61
2024/03/03 09:01:29;;;;;;;10.33;6.40;;;;;;;;;;5054570;28;20040;-61
2024/03/03 09:03:56;;;;;;;17.00;7.45;;;;;;;;;;5054418;28;20045;-61
2024/03/03 09:06:21;;;;;;;15.55;7.35;;;;;;;;;;5053991;28;20045;-61
2024/03/03 09:08:46;;;;;;;16.97;7.03;;;;;;;;;;5064649;28;20028;-61
2024/03/03 09:11:12;;;;;;;13.10;7.03;;;;;;;;;;5056498;28;20040;-61
2024/03/03 09:13:38;;;;;;;;;;;;;;;;;;5054978;28;20034;-60
2024/03/03 09:16:04;;;;;;;12.23;6.33;;;;;;;;;;5070204;28;20026;-60
2024/03/03 09:18:30;;;;;;;16.10;6.75;;;;;;;;;;5069333;28;20033;-61
2024/03/03 09:20:55;;;;;;;13.05;6.63;;;;;;;;;;5055987;28;20041;-61
2024/03/03 09:23:21;;;;;;;14.57;7.53;;;;;;;;;;5054545;28;20029;-61
2024/03/03 09:25:46;;;;;;;14.15;6.35;;;;;;;;;;5063603;28;20029;-61
2024/03/03 09:28:12;;;;;;;13.77;7.07;;;;;;;;;;5057731;28;20210;-61
2024/03/03 09:30:37;;;;;;;15.40;8.00;;;;;;;;;;5054281;28;20026;-61
2024/03/03 09:33:03;;;;;;;16.98;7.82;;;;;;;;;;5054289;28;20040;-60
2024/03/03 09:35:29;;;;;;;16.02;7.60;;;;;;;;;;5061815;28;20052;-60
2024/03/03 09:37:54;;;;;;;14.95;7.85;;;;;;;;;;5059152;28;20045;-61
2024/03/03 09:40:21;;;;;;;12.15;7.05;;;;;;;;;;5055889;28;20097;-60
2024/03/03 09:42:49;;;;;;;12.40;7.40;;;;;;;;;;5056791;28;20033;-61
2024/03/03 09:45:18;;;;;;;13.63;7.10;;;;;;;;;;5053430;28;20093;-60
2024/03/03 09:47:45;;;;;;;11.77;6.83;;;;;;;;;;5050340;28;20029;-61
2024/03/03 09:50:12;;;;;;;24.13;7.30;;;;;;;;;;5058259;28;20029;-61
2024/03/03 09:52:38;;;;;;;;;;;;;;;;;;5047906;28;20033;-61
2024/03/03 09:55:05;;;;;;;13.87;7.03;;;;;;;;;;5057096;28;19931;-63
2024/03/03 09:57:31;;;;;;;13.53;6.57;;;;;;;;;;5052650;28;20033;-60
2024/03/03 09:59:57;;;;;;;15.90;7.70;;;;;;;;;;5057037;28;20029;-61
2024/03/03 10:02:23;;;;;;;16.00;8.20;;;;;;;;;;5046097;28;20056;-61
2024/03/03 10:04:49;;;;;;;18.57;8.10;;;;;;;;;;5057370;28;20029;-62
2024/03/03 10:07:16;;;;;;;;;;;;;;;;;;5053687;28;20038;-61
2024/03/03 10:09:42;;;;;;;14.53;7.37;;;;;;;;;;5057946;28;19937;-62
2024/03/03 10:12:10;;;;;;;14.20;7.70;;;;;;;;;;5053050;28;20030;-62
2024/03/03 10:14:37;;;;;;;12.83;7.67;;;;;;;;;;5059101;28;20040;-61
2024/03/03 10:17:03;;;;;;;15.73;7.20;;;;;;;;;;5053332;28;20049;-61
2024/03/03 10:19:30;;;;;;;16.85;8.98;;;;;;;;;;5052382;28;20041;-60
2024/03/03 10:21:55;;;;;;;17.33;7.77;;;;;;;;;;5054244;28;20079;-61
2024/03/03 10:24:24;;;;;;;18.55;8.57;;;;;;;;;;5052303;28;20040;-60
2024/03/03 10:26:52;;;;;;;19.73;8.73;;;;;;;;;;5062940;28;20033;-62
2024/03/03 10:29:21;;;;;;;15.67;8.27;;;;;;;;;;5054046;28;20026;-61
2024/03/03 10:31:47;;;;;;;17.63;8.07;;;;;;;;;;5057043;28;20047;-61
2024/03/03 10:34:14;;;;;;;;;;;;;;;;;;5057319;28;20037;-61
2024/03/03 10:36:40;;;;;;;16.88;7.50;;;;;;;;;;5060022;28;19909;-62
2024/03/03 10:39:08;;;;;;;16.20;8.18;;;;;;;;;;5064021;28;20067;-61
2024/03/03 10:41:33;;;;;;;16.43;9.40;;;;;;;;;;5060672;28;20013;-61
2024/03/03 10:43:59;;;;;;;16.38;8.80;;;;;;;;;;5040397;28;20029;-60
2024/03/03 10:46:25;;;;;;;16.83;8.77;;;;;;;;;;5065838;28;20041;-62
2024/03/03 10:48:52;;;;;;;16.48;9.25;;;;;;;;;;5056797;28;20045;-61
2024/03/03 10:51:18;;;;;;;18.10;8.87;;;;;;;;;;5059551;28;20076;-60
2024/03/03 10:53:44;;;;;;;;;;;;;;;;;;5051901;28;20034;-61
2024/03/03 10:56:10;;;;;;;15.10;8.20;;;;;;;;;;5052663;28;19916;-61
2024/03/03 10:58:37;;;;;;;16.73;8.38;;;;;;;;;;5061492;28;20037;-62
2024/03/03 11:01:03;;;;;;;17.13;9.30;;;;;;;;;;5055381;28;20053;-62
2024/03/03 11:03:28;;;;;;;17.33;9.77;;;;;;;;;;5043305;28;20034;-61
2024/03/03 11:05:54;;;;;;;15.85;7.65;;;;;;;;;;5052430;28;20033;-61
2024/03/03 11:08:20;;;;;;;16.38;7.90;;;;;;;;;;5056352;28;20033;-61
2024/03/03 11:10:46;;;;;;;;;;;;;;;;;;5051605;28;20035;-61
2024/03/03 11:13:12;;;;;;;16.77;7.30;;;;;;;;;;5056102;28;19944;-62
2024/03/03 11:15:39;;;;;;;19.40;8.83;;;;;;;;;;5059752;28;20027;-61
2024/03/03 11:18:04;;;;;;;;;;;;;;;;;;5056984;28;20089;-62
2024/03/03 11:20:39;;;;;;;11.83;6.80;;;;;;;;;;5064201;28;19916;-62
2024/03/03 11:23:20;;;;;;;13.73;7.90;;;;;;;;;;5056561;28;20067;-61
2024/03/03 11:26:01;;;;;;;13.97;7.23;;;;;;;;;;5056773;28;20029;-61
2024/03/03 11:28:26;;;;;;;14.50;6.73;;;;;;;;;;5058124;28;20034;-61
2024/03/03 11:30:52;;;;;;;14.73;6.88;;;;;;;;;;5056014;28;20037;-61
2024/03/03 11:33:19;;;;;;;12.53;7.30;;;;;;;;;;5056079;28;20057;-62
2024/03/03 11:35:45;;;;;;;14.85;7.25;;;;;;;;;;5056065;28;20064;-61
2024/03/03 11:38:10;;;;;;;12.15;6.97;;;;;;;;;;5056086;28;20029;-61
2024/03/03 11:40:39;;;;;;;12.57;6.55;;;;;;;;;;5067747;28;20029;-61
2024/03/03 11:43:04;;;;;;;15.32;6.25;;;;;;;;;;5055801;28;20029;-62
2024/03/03 11:45:43;;;;;;;14.32;7.00;;;;;;;;;;5056098;28;20089;-61
2024/03/03 11:48:09;;;;;;;15.00;6.45;;;;;;;;;;5054568;28;20033;-65
2024/03/03 11:50:35;;;;;;;8.32;4.65;;;;;;;;;;5066570;28;20036;-61
2024/03/03 11:53:01;;;;;;;10.63;6.40;;;;;;;;;;5055653;28;20044;-62
2024/03/03 11:55:29;;;;;;;16.35;6.78;;;;;;;;;;5056174;28;20025;-63
2024/03/03 11:57:55;;;;;;;11.80;6.32;;;;;;;;;;5055624;28;20059;-61
2024/03/03 12:00:27;;;;;;;10.45;5.78;;;;;;;;;;5055354;28;20044;-61
2024/03/03 12:02:52;;;;;;;12.23;5.13;;;;;;;;;;5039538;28;20049;-62
2024/03/03 12:05:19;;;;;;;11.85;5.97;;;;;;;;;;5054412;28;20053;-62
2024/03/03 12:07:45;;;;;;;11.40;4.93;;;;;;;;;;5055753;28;20022;-61
2024/03/03 12:10:17;;;;;;;8.10;4.55;;;;;;;;;;5052537;28;20045;-61
2024/03/03 12:13:00;;;;;;;9.93;5.35;;;;;;;;;;5053535;28;20041;-61
2024/03/03 12:15:27;;;;;;;14.02;5.28;;;;;;;;;;5043733;28;20073;-61
2024/03/03 12:17:54;;;;;;;16.23;4.57;;;;;;;;;;5055118;28;20108;-61
2024/03/03 12:20:21;;;;;;;13.20;4.82;;;;;;;;;;5057540;28;20042;-62
2024/03/03 12:22:47;;;;;;;6.93;4.50;;;;;;;;;;5048809;28;20030;-62
2024/03/03 12:25:14;;;;;;;8.50;5.13;;;;;;;;;;5052267;28;20040;-62
2024/03/03 12:27:46;;;;;;;10.15;4.15;;;;;;;;;;5061726;28;20115;-61
2024/03/03 12:30:16;;;;;;;9.43;4.30;;;;;;;;;;5052642;28;20037;-62
2024/03/03 12:32:42;;;;;;;10.07;4.70;;;;;;;;;;5047845;28;20098;-61
2024/03/03 12:35:07;;;;;;;15.77;4.60;;;;;;;;;;5048736;28;20079;-61
2024/03/03 12:37:32;;;;;;;6.63;3.42;;;;;;;;;;5049037;28;20029;-63
2024/03/03 12:39:58;;;;;;;6.05;2.97;;;;;;;;;;5052773;28;20088;-62
2024/03/03 12:42:23;;;;;;;8.55;3.80;;;;;;;;;;5052176;28;20029;-62
2024/03/03 12:44:49;;;;;;;9.45;4.63;;;;;;;;;;5040994;28;20069;-64
2024/03/03 12:47:15;;;;;;;7.10;3.72;;;;;;;;;;5051626;28;20060;-62
2024/03/03 12:49:46;;;;;;;5.85;3.10;;;;;;;;;;5051538;28;20123;-61
2024/03/03 12:52:12;;;;;;;8.57;4.03;;;;;;;;;;5051355;28;20044;-61
2024/03/03 12:54:39;;;;;;;8.35;3.00;;;;;;;;;;5051927;28;20029;-62
2024/03/03 12:57:05;;;;;;;5.93;3.13;;;;;;;;;;5056791;28;20031;-62
2024/03/03 12:59:34;;;;;;;11.23;3.10;;;;;;;;;;5050952;28;20060;-61
2024/03/03 13:02:00;;;;;;;8.65;2.58;;;;;;;;;;5049350;28;20030;-62
2024/03/03 13:04:29;;;;;;;5.50;2.50;;;;;;;;;;5052213;28;20083;-62
2024/03/03 13:06:59;;;;;;;4.95;2.03;;;;;;;;;;5054614;28;20053;-62
2024/03/03 13:09:26;;;;;;;4.60;1.67;;;;;;;;;;5052820;28;20040;-62
2024/03/03 13:11:52;;;;;;;4.75;2.03;;;;;;;;;;5052508;28;20103;-62
2024/03/03 13:14:17;;;;;;;3.72;1.48;;;;;;;;;;5052609;28;20033;-62
2024/03/03 13:16:43;;;;;;;4.97;1.30;;;;;;;;;;5052646;28;20056;-62
2024/03/03 13:19:08;;;;;;;4.45;1.52;;;;;;;;;;5053282;28;20048;-61
2024/03/03 13:21:35;;;;;;;2.72;1.35;;;;;;;;;;5053417;28;20027;-61
2024/03/03 13:24:12;;;;;;;3.83;1.65;;;;;;;;;;5054342;28;20034;-62
2024/03/03 13:26:40;;;;;;;2.85;1.45;;;;;;;;;;5053622;28;20030;-63
2024/03/03 13:29:07;;;;;;;6.70;1.67;;;;;;;;;;5055761;28;20033;-61
2024/03/03 13:31:33;;;;;;;4.57;2.00;;;;;;;;;;5054113;28;20029;-61
2024/03/03 13:33:58;;;;;;;6.80;2.35;;;;;;;;;;5054182;28;20037;-61
2024/03/03 13:36:24;;;;;;;5.82;1.92;;;;;;;;;;5054192;28;20033;-61
2024/03/03 13:38:50;;;;;;;8.60;2.65;;;;;;;;;;5063955;28;20056;-61
2024/03/03 13:41:15;;;;;;;4.82;1.92;;;;;;;;;;5054029;28;20037;-62
2024/03/03 13:43:41;;;;;;;3.75;1.90;;;;;;;;;;5054417;28;20017;-60
2024/03/03 13:46:06;;;;;;;4.90;2.65;;;;;;;;;;5053917;28;20030;-61
2024/03/03 13:48:34;;;;;;;4.68;2.00;;;;;;;;;;5061812;28;20049;-61
2024/03/03 13:50:59;;;;;;;6.47;2.47;;;;;;;;;;5053948;28;20064;-61
2024/03/03 13:53:24;;;;;;;8.13;2.65;;;;;;;;;;5054043;28;20060;-61
2024/03/03 13:55:50;;;;;;;4.72;2.40;;;;;;;;;;5054271;28;20036;-61
2024/03/03 13:58:16;;;;;;;5.75;2.10;;;;;;;;;;5059069;28;20038;-62
2024/03/03 14:00:41;;;;;;;2.30;1.40;;;;;;;;;;5055862;28;20025;-61
2024/03/03 14:03:07;;;;;;;4.18;1.60;;;;;;;;;;5054100;28;20068;-61
2024/03/03 14:05:34;;;;;;;5.80;1.80;;;;;;;;;;5053815;28;20029;-62
2024/03/03 14:07:59;;;;;;;6.63;2.58;;;;;;;;;;5055559;28;20061;-62
2024/03/03 14:10:25;;;;;;;5.47;1.85;;;;;;;;;;5053551;28;20049;-61
2024/03/03 14:12:51;;;;;;;3.97;1.45;;;;;;;;;;5053956;28;20041;-61
2024/03/03 14:15:17;;;;;;;5.53;2.22;;;;;;;;;;5053954;28;20041;-61
2024/03/03 14:17:46;;;;;;;3.25;1.40;;;;;;;;;;5060169;28;20057;-61
2024/03/03 14:20:12;;;;;;;8.48;2.20;;;;;;;;;;5058522;28;20040;-61
2024/03/03 14:22:38;;;;;;;2.83;1.00;;;;;;;;;;5060595;28;20033;-61
2024/03/03 14:25:05;;;;;;;3.72;1.50;;;;;;;;;;5057564;28;20060;-61
2024/03/03 14:27:31;;;;;;;5.88;1.70;;;;;;;;;;5057604;28;20035;-61
2024/03/03 14:29:57;;;;;;;6.35;2.92;;;;;;;;;;5070955;28;20045;-62
2024/03/03 14:32:22;;;;;;;8.38;4.25;;;;;;;;;;5061528;28;20101;-62